createdAt,value
2022-08-16T00:05:00.241Z,73007.16
2022-08-16T00:15:13.121Z,73019.28
2022-08-16T00:26:33.626Z,73033.47
2022-08-16T00:35:56.577Z,73055.69
2022-08-16T00:46:34.628Z,73067.84
2022-08-16T00:56:58.419Z,73067.84
2022-08-16T01:07:07.620Z,73063.78
2022-08-16T01:17:14.572Z,73059.75
2022-08-16T01:27:28.514Z,73063.78
2022-08-16T01:37:42.933Z,73053.69
2022-08-16T01:47:52.282Z,73047.63
2022-08-16T01:57:58.913Z,73039.53
2022-08-16T02:08:05.043Z,73021.31
2022-08-16T02:18:12.457Z,73029.41
2022-08-16T02:28:23.987Z,73039.53
2022-08-16T02:38:31.703Z,73045.59
2022-08-16T02:48:47.426Z,73033.47
2022-08-16T02:58:58.711Z,73059.75
2022-08-16T03:09:04.737Z,73088.06
2022-08-16T03:19:19.220Z,73082.00
2022-08-16T03:29:31.268Z,73104.25
2022-08-16T03:39:42.607Z,73112.34
2022-08-16T03:49:51.851Z,73118.41
2022-08-16T03:59:59.462Z,73124.47
2022-08-16T04:10:36.036Z,73136.59
2022-08-16T04:20:37.283Z,73136.59
2022-08-16T04:30:43.081Z,73146.72
2022-08-16T04:40:50.004Z,73140.66
2022-08-16T04:50:54.229Z,73148.75
2022-08-16T05:01:02.726Z,73140.66
2022-08-16T05:11:15.122Z,73110.31
2022-08-16T05:21:17.459Z,73096.16
2022-08-16T05:31:30.434Z,73057.72
2022-08-16T05:41:45.569Z,73059.75
2022-08-16T05:51:49.764Z,73067.84
2022-08-16T06:02:01.121Z,73055.69
2022-08-16T06:12:27.320Z,73047.63
2022-08-16T06:22:40.308Z,73043.56
2022-08-16T06:32:48.587Z,73009.19
2022-08-16T06:42:57.504Z,72960.66
2022-08-16T06:53:23.049Z,72902.00
2022-08-16T07:03:54.488Z,72768.53
2022-08-16T07:14:24.394Z,72622.91
2022-08-16T07:24:30.020Z,72471.25
2022-08-16T07:34:37.790Z,72368.13
2022-08-16T07:44:52.743Z,72436.88
2022-08-16T07:54:56.349Z,72388.34
2022-08-16T08:04:59.063Z,72275.13
2022-08-16T08:15:09.634Z,72341.84
2022-08-16T08:25:14.232Z,72531.91
2022-08-16T08:35:24.331Z,72497.53
2022-08-16T08:45:47.384Z,72517.75
2022-08-16T08:55:59.214Z,72505.63
2022-08-16T09:06:08.496Z,72422.72
2022-08-16T09:17:03.821Z,72313.53
2022-08-16T09:26:46.366Z,72449.00
2022-08-16T09:36:54.570Z,72465.19
2022-08-16T09:47:00.715Z,72495.53
2022-08-16T09:57:07.395Z,72598.66
2022-08-16T10:07:19.152Z,72602.69
2022-08-16T10:17:27.411Z,72584.50
2022-08-16T10:27:46.222Z,72616.84
2022-08-16T10:37:58.241Z,72602.69
2022-08-16T10:48:27.411Z,72655.28
2022-08-16T10:58:35.150Z,72610.78
2022-08-16T11:08:45.727Z,72614.84
2022-08-16T11:19:05.681Z,72639.09
2022-08-16T11:29:14.674Z,72651.22
2022-08-16T11:39:26.432Z,72679.53
2022-08-16T11:49:31.422Z,72675.50
2022-08-16T11:59:34.062Z,72647.19
2022-08-16T12:09:43.092Z,72612.81
2022-08-16T12:19:45.998Z,72618.88
2022-08-16T12:29:51.618Z,72582.47
2022-08-16T12:40:02.490Z,72578.44
2022-08-16T12:50:10.374Z,72691.69
2022-08-16T13:00:26.256Z,72715.94
2022-08-16T13:10:37.632Z,72732.13
2022-08-16T13:20:43.425Z,72649.22
2022-08-16T13:30:52.016Z,72574.38
2022-08-16T13:40:57.275Z,72517.75
2022-08-16T13:51:04.119Z,72493.50
2022-08-16T14:01:09.857Z,72517.75
2022-08-16T14:11:18.463Z,72546.06
2022-08-16T14:21:23.659Z,72546.06
2022-08-16T14:31:30.704Z,72529.91
2022-08-16T14:41:33.194Z,72527.88
2022-08-16T14:51:37.588Z,72519.78
2022-08-16T15:01:58.878Z,72535.97
2022-08-16T15:12:26.232Z,72525.84
2022-08-16T15:22:33.005Z,72497.53
2022-08-16T15:32:39.904Z,72497.53
2022-08-16T15:42:44.180Z,72501.59
2022-08-16T15:52:59.519Z,72477.31
2022-08-16T16:03:08.419Z,72471.25
2022-08-16T16:13:12.020Z,72509.69
2022-08-16T16:23:24.404Z,72513.72
2022-08-16T16:33:30.650Z,72529.91
2022-08-16T16:43:35.917Z,72544.06
2022-08-16T16:53:41.487Z,72538.00
2022-08-16T17:03:43.668Z,72540.00
2022-08-16T17:13:58.671Z,72556.19
2022-08-16T17:24:01.742Z,72572.38
2022-08-16T17:34:30.124Z,72586.53
2022-08-16T17:44:37.388Z,72606.75
2022-08-16T17:54:39.462Z,72622.91
2022-08-16T18:04:48.469Z,72639.09
2022-08-16T18:14:59.892Z,72655.28
2022-08-16T18:25:11.977Z,72699.78
2022-08-16T18:35:19.683Z,72713.91
2022-08-16T18:45:23.439Z,72732.13
2022-08-16T18:55:33.527Z,72766.50
2022-08-16T19:05:41.499Z,72790.78
2022-08-16T19:15:45.739Z,72798.84
2022-08-16T19:25:53.125Z,72804.94
2022-08-16T19:35:56.357Z,72823.13
2022-08-16T19:46:02.050Z,72817.06
2022-08-16T19:56:06.547Z,72825.16
2022-08-16T20:06:12.200Z,72837.28
2022-08-16T20:16:36.910Z,72851.44
2022-08-16T20:26:46.027Z,72865.59
2022-08-16T20:36:48.204Z,72871.66
2022-08-16T20:46:50.800Z,72879.75
2022-08-16T20:56:55.184Z,72889.88
2022-08-16T21:07:02.028Z,72897.94
2022-08-16T21:17:09.603Z,72904.03
2022-08-16T21:27:17.610Z,72910.09
2022-08-16T21:37:20.886Z,72934.34
2022-08-16T21:47:23.219Z,72938.41
2022-08-16T21:57:36.339Z,72954.59
2022-08-16T22:07:41.095Z,72958.63
2022-08-16T22:17:46.141Z,72980.88
2022-08-16T22:27:50.987Z,72995.03
2022-08-16T22:38:46.105Z,73017.28
2022-08-16T22:48:19.083Z,73033.47
2022-08-16T22:58:23.830Z,73047.63
2022-08-16T23:08:43.189Z,73055.69
2022-08-16T23:18:49.546Z,73055.69
2022-08-16T23:28:51.730Z,73071.88
2022-08-16T23:38:54.574Z,73079.97
2022-08-16T23:49:57.379Z,73086.03
2022-08-16T23:59:23.373Z,73096.16
